createdAt,value
2019-05-21T00:00:25.063Z,15.30
2019-05-21T00:02:51.908Z,15.30
2019-05-21T00:05:18.806Z,15.30
2019-05-21T00:07:45.672Z,15.40
2019-05-21T00:10:13.071Z,15.40
2019-05-21T00:12:40.011Z,15.40
2019-05-21T00:15:07.019Z,15.40
2019-05-21T00:17:33.806Z,15.40
2019-05-21T00:20:00.633Z,15.40
2019-05-21T00:22:27.629Z,15.40
2019-05-21T00:24:54.669Z,15.40
2019-05-21T00:27:21.692Z,15.40
2019-05-21T00:30:25.492Z,15.40
2019-05-21T00:33:29.162Z,15.50
2019-05-21T00:36:33.502Z,15.50
2019-05-21T00:39:37.526Z,15.60
2019-05-21T00:42:04.566Z,15.60
2019-05-21T00:44:35.513Z,15.60
2019-05-21T00:47:03.691Z,15.60
2019-05-21T00:49:30.497Z,15.70
2019-05-21T00:52:06.890Z,15.70
2019-05-21T00:54:26.321Z,15.70
2019-05-21T00:56:53.210Z,15.70
2019-05-21T00:59:20.122Z,15.70
2019-05-21T01:01:47.067Z,15.70
2019-05-21T01:04:13.870Z,15.60
2019-05-21T01:06:41.138Z,15.60
2019-05-21T01:09:08.193Z,15.60
2019-05-21T01:11:35.183Z,15.50
2019-05-21T01:14:02.101Z,15.50
2019-05-21T01:16:29.139Z,15.60
2019-05-21T01:18:55.945Z,15.60
2019-05-21T01:21:22.826Z,15.60
2019-05-21T01:23:49.669Z,15.60
2019-05-21T01:26:16.476Z,15.50
2019-05-21T01:28:43.362Z,15.50
2019-05-21T01:31:10.309Z,15.50
2019-05-21T01:33:37.210Z,15.50
2019-05-21T01:36:04.202Z,15.40
2019-05-21T01:38:31.039Z,15.40
2019-05-21T01:40:57.878Z,15.40
2019-05-21T01:43:24.874Z,15.40
2019-05-21T01:45:51.793Z,15.50
2019-05-21T01:48:18.706Z,15.40
2019-05-21T01:50:45.753Z,15.40
2019-05-21T01:53:12.548Z,15.30
2019-05-21T01:55:39.446Z,15.40
2019-05-21T01:58:06.405Z,15.40
2019-05-21T02:00:33.427Z,15.40
2019-05-21T02:03:00.447Z,15.30
2019-05-21T02:05:33.222Z,15.40
2019-05-21T02:07:56.421Z,15.40
2019-05-21T02:10:23.214Z,15.40
2019-05-21T02:12:50.243Z,15.40
2019-05-21T02:15:17.329Z,15.30
2019-05-21T02:17:44.230Z,15.30
2019-05-21T02:20:11.281Z,15.30
2019-05-21T02:22:38.279Z,15.30
2019-05-21T02:25:06.579Z,15.30
2019-05-21T02:27:33.528Z,15.30
2019-05-21T02:30:00.427Z,15.30
2019-05-21T02:32:27.293Z,15.30
2019-05-21T02:34:54.163Z,15.30
2019-05-21T02:37:21.051Z,15.30
2019-05-21T02:39:47.877Z,15.30
2019-05-21T02:42:14.786Z,15.30
2019-05-21T02:44:41.697Z,15.20
2019-05-21T02:47:08.731Z,15.30
2019-05-21T02:49:35.631Z,15.30
2019-05-21T02:52:02.684Z,15.30
2019-05-21T02:54:40.089Z,15.20
2019-05-21T02:56:58.495Z,15.20
2019-05-21T02:59:25.362Z,15.30
2019-05-21T03:02:07.163Z,15.30
2019-05-21T03:04:33.995Z,15.30
2019-05-21T03:07:19.020Z,15.30
2019-05-21T03:09:46.978Z,15.30
2019-05-21T03:12:14.075Z,15.30
2019-05-21T03:14:40.982Z,15.30
2019-05-21T03:17:08.024Z,15.40
2019-05-21T03:19:34.965Z,15.50
2019-05-21T03:22:01.868Z,15.70
2019-05-21T03:24:28.811Z,15.90
2019-05-21T03:26:55.617Z,16.10
2019-05-21T03:29:22.428Z,16.20
2019-05-21T03:31:49.263Z,16.10
2019-05-21T03:34:16.056Z,16.00
2019-05-21T03:36:42.967Z,16.00
2019-05-21T03:39:09.766Z,16.10
2019-05-21T03:41:36.671Z,16.20
2019-05-21T03:44:03.631Z,16.50
2019-05-21T03:46:30.623Z,16.50
2019-05-21T03:48:57.650Z,16.50
2019-05-21T03:51:24.611Z,16.50
2019-05-21T03:53:51.433Z,16.70
2019-05-21T03:56:18.319Z,16.90
2019-05-21T03:58:45.406Z,17.10
2019-05-21T04:01:12.201Z,17.50
2019-05-21T04:03:39.122Z,18.00
2019-05-21T04:06:06.090Z,18.20
2019-05-21T04:08:32.904Z,18.20
2019-05-21T04:10:59.880Z,17.80
2019-05-21T04:13:26.829Z,17.40
2019-05-21T04:16:00.543Z,17.50
2019-05-21T04:18:35.728Z,17.70
2019-05-21T04:21:02.827Z,17.50
2019-05-21T04:23:29.715Z,17.50
2019-05-21T04:25:56.546Z,17.70
2019-05-21T04:28:23.351Z,17.90
2019-05-21T04:30:50.248Z,18.20
2019-05-21T04:33:17.051Z,18.30
2019-05-21T04:35:43.898Z,17.80
2019-05-21T04:38:10.875Z,18.20
2019-05-21T04:40:37.659Z,18.60
2019-05-21T04:43:04.610Z,18.30
2019-05-21T04:45:31.528Z,17.80
2019-05-21T04:47:58.406Z,17.20
2019-05-21T04:50:25.341Z,17.00
2019-05-21T04:52:52.240Z,17.00
2019-05-21T04:55:19.074Z,16.90
2019-05-21T04:57:45.995Z,16.90
2019-05-21T05:00:13.103Z,16.90
2019-05-21T05:02:39.938Z,16.80
2019-05-21T05:05:07.238Z,16.70
2019-05-21T05:07:34.154Z,16.60
2019-05-21T05:10:01.212Z,16.50
2019-05-21T05:12:28.206Z,16.50
2019-05-21T05:14:55.010Z,16.50
2019-05-21T05:17:22.032Z,16.40
2019-05-21T05:19:49.246Z,16.40
2019-05-21T05:22:16.255Z,16.50
2019-05-21T05:24:43.079Z,16.50
2019-05-21T05:27:09.890Z,16.50
2019-05-21T05:29:36.686Z,16.50
2019-05-21T05:32:03.630Z,16.50
2019-05-21T05:34:30.527Z,16.50
2019-05-21T05:36:57.429Z,16.50
2019-05-21T05:39:24.382Z,16.60
2019-05-21T05:41:51.290Z,16.60
2019-05-21T05:44:18.356Z,16.60
2019-05-21T05:46:45.274Z,16.60
2019-05-21T05:49:20.154Z,16.60
2019-05-21T05:51:47.007Z,16.60
2019-05-21T05:54:13.810Z,16.60
2019-05-21T05:56:40.610Z,16.60
2019-05-21T05:59:08.229Z,16.60
2019-05-21T06:01:35.054Z,16.70
2019-05-21T06:04:01.874Z,16.80
2019-05-21T06:06:28.916Z,16.80
2019-05-21T06:08:55.938Z,16.80
2019-05-21T06:11:22.870Z,16.90
2019-05-21T06:13:49.831Z,17.00
2019-05-21T06:16:16.722Z,17.10
2019-05-21T06:18:43.709Z,17.10
2019-05-21T06:21:10.667Z,17.20
2019-05-21T06:23:37.603Z,17.20
2019-05-21T06:26:04.751Z,17.20
2019-05-21T06:28:31.780Z,17.20
2019-05-21T06:30:58.560Z,17.20
2019-05-21T06:33:25.370Z,17.30
2019-05-21T06:35:52.445Z,17.30
2019-05-21T06:38:19.339Z,17.20
2019-05-21T06:40:46.246Z,17.30
2019-05-21T06:43:13.174Z,17.40
2019-05-21T06:45:40.343Z,17.50
2019-05-21T06:48:07.368Z,17.70
2019-05-21T06:50:37.261Z,17.90
2019-05-21T06:53:03.151Z,17.90
2019-05-21T06:55:30.019Z,18.10
2019-05-21T06:57:56.877Z,18.20
2019-05-21T07:00:23.861Z,18.30
2019-05-21T07:02:50.671Z,18.30
2019-05-21T07:05:17.493Z,18.60
2019-05-21T07:07:44.436Z,18.90
2019-05-21T07:10:12.050Z,18.90
2019-05-21T07:12:39.128Z,19.00
2019-05-21T07:15:06.605Z,18.90
2019-05-21T07:17:33.602Z,18.90
2019-05-21T07:20:04.362Z,19.00
2019-05-21T07:22:31.179Z,18.80
2019-05-21T07:24:58.214Z,18.80
2019-05-21T07:27:24.993Z,18.80
2019-05-21T07:29:51.905Z,19.00
2019-05-21T07:32:18.826Z,18.80
2019-05-21T07:34:45.725Z,18.60
2019-05-21T07:37:12.716Z,18.30
2019-05-21T07:39:39.772Z,18.20
2019-05-21T07:42:06.776Z,18.10
2019-05-21T07:44:33.761Z,18.00
2019-05-21T07:47:00.747Z,18.00
2019-05-21T07:49:27.557Z,17.90
2019-05-21T07:51:54.465Z,17.70
2019-05-21T07:54:21.294Z,17.80
2019-05-21T07:56:48.132Z,17.80
2019-05-21T07:59:15.083Z,17.90
2019-05-21T08:01:42.077Z,18.00
2019-05-21T08:04:08.985Z,18.00
2019-05-21T08:06:36.007Z,18.20
2019-05-21T08:09:13.354Z,18.30
2019-05-21T08:11:33.520Z,18.20
2019-05-21T08:14:00.467Z,18.00
2019-05-21T08:16:27.307Z,18.00
2019-05-21T08:18:54.222Z,18.00
2019-05-21T08:21:21.052Z,18.00
2019-05-21T08:23:47.868Z,18.10
2019-05-21T08:26:14.788Z,18.20
2019-05-21T08:28:41.737Z,18.00
2019-05-21T08:31:08.565Z,18.00
2019-05-21T08:33:35.443Z,18.20
2019-05-21T08:36:02.630Z,18.40
2019-05-21T08:38:29.578Z,18.60
2019-05-21T08:40:56.481Z,18.60
2019-05-21T08:43:23.531Z,18.30
2019-05-21T08:45:50.334Z,18.40
2019-05-21T08:48:17.226Z,18.50
2019-05-21T08:50:44.184Z,18.60
2019-05-21T08:53:11.457Z,18.70
2019-05-21T08:55:38.541Z,18.70
2019-05-21T08:58:07.567Z,18.80
2019-05-21T09:00:34.642Z,18.90
2019-05-21T09:03:01.581Z,18.90
2019-05-21T09:05:28.580Z,19.00
2019-05-21T09:07:55.504Z,18.80
2019-05-21T09:10:22.510Z,18.80
2019-05-21T09:12:49.513Z,18.90
2019-05-21T09:15:16.766Z,19.40
2019-05-21T09:17:43.817Z,19.70
2019-05-21T09:20:11.406Z,19.90
2019-05-21T09:22:38.222Z,19.90
2019-05-21T09:25:07.125Z,20.00
2019-05-21T09:27:34.239Z,20.00
2019-05-21T09:30:01.216Z,20.30
2019-05-21T09:32:28.061Z,20.60
2019-05-21T09:34:55.151Z,20.70
2019-05-21T09:37:22.002Z,20.40
2019-05-21T09:39:49.014Z,20.90
2019-05-21T09:42:16.065Z,21.30
2019-05-21T09:44:42.970Z,21.30
2019-05-21T09:47:09.791Z,21.60
2019-05-21T09:49:36.717Z,21.40
2019-05-21T09:52:03.832Z,21.90
2019-05-21T09:54:30.766Z,21.80
2019-05-21T09:56:57.727Z,21.70
2019-05-21T09:59:40.401Z,22.00
2019-05-21T10:02:11.098Z,22.40
2019-05-21T10:04:38.104Z,21.70
2019-05-21T10:07:05.222Z,21.50
2019-05-21T10:09:32.266Z,21.40
2019-05-21T10:11:59.195Z,21.20
2019-05-21T10:14:26.087Z,21.10
2019-05-21T10:16:52.944Z,21.00
2019-05-21T10:19:19.836Z,20.80
2019-05-21T10:21:46.656Z,20.70
2019-05-21T10:24:13.650Z,20.50
2019-05-21T10:26:40.642Z,20.40
2019-05-21T10:29:07.542Z,20.50
2019-05-21T10:31:34.677Z,20.30
2019-05-21T10:34:01.575Z,20.20
2019-05-21T10:36:28.367Z,20.30
2019-05-21T10:38:55.170Z,20.40
2019-05-21T10:41:22.171Z,20.00
2019-05-21T10:43:49.307Z,19.90
2019-05-21T10:46:16.322Z,19.70
2019-05-21T10:48:43.125Z,19.80
2019-05-21T10:51:10.347Z,19.90
2019-05-21T10:53:37.341Z,19.80
2019-05-21T10:56:04.350Z,19.70
2019-05-21T10:58:31.276Z,19.70
2019-05-21T11:01:16.575Z,19.60
2019-05-21T11:04:01.724Z,19.60
2019-05-21T11:06:28.613Z,19.60
2019-05-21T11:08:55.529Z,19.50
2019-05-21T11:11:22.458Z,19.50
2019-05-21T11:13:49.268Z,19.60
2019-05-21T11:16:16.196Z,19.60
2019-05-21T11:18:43.154Z,19.60
2019-05-21T11:21:10.059Z,19.60
2019-05-21T11:23:36.873Z,19.40
2019-05-21T11:26:05.609Z,19.30
2019-05-21T11:28:32.674Z,19.10
2019-05-21T11:30:59.585Z,19.10
2019-05-21T11:33:26.778Z,19.00
2019-05-21T11:35:53.716Z,19.10
2019-05-21T11:38:20.580Z,19.10
2019-05-21T11:40:50.962Z,19.20
2019-05-21T11:43:16.576Z,19.30
2019-05-21T11:45:43.510Z,19.10
2019-05-21T11:48:10.619Z,18.80
2019-05-21T11:50:37.533Z,18.80
2019-05-21T11:53:04.478Z,18.80
2019-05-21T11:55:31.584Z,18.60
2019-05-21T11:57:58.467Z,18.30
2019-05-21T12:00:26.930Z,18.30
2019-05-21T12:02:53.841Z,18.40
2019-05-21T12:05:20.758Z,18.60
2019-05-21T12:07:47.806Z,18.50
2019-05-21T12:10:14.901Z,18.40
2019-05-21T12:12:41.958Z,18.60
2019-05-21T12:15:09.259Z,18.50
2019-05-21T12:17:36.314Z,18.40
2019-05-21T12:20:05.280Z,18.40
2019-05-21T12:22:32.390Z,18.40
2019-05-21T12:24:59.178Z,18.50
2019-05-21T12:27:26.026Z,18.40
2019-05-21T12:29:53.023Z,18.40
2019-05-21T12:32:20.998Z,18.20
2019-05-21T12:34:48.265Z,17.90
2019-05-21T12:37:15.208Z,17.90
2019-05-21T12:39:42.266Z,17.70
2019-05-21T12:42:09.323Z,17.70
2019-05-21T12:44:36.330Z,17.40
2019-05-21T12:47:03.247Z,17.40
2019-05-21T12:49:30.148Z,17.40
2019-05-21T12:51:56.964Z,17.40
2019-05-21T12:54:23.965Z,17.30
2019-05-21T12:56:50.971Z,17.20
2019-05-21T12:59:17.817Z,17.10
2019-05-21T13:01:44.617Z,17.10
2019-05-21T13:04:11.421Z,17.10
2019-05-21T13:06:38.357Z,17.20
2019-05-21T13:09:08.096Z,17.30
2019-05-21T13:11:35.481Z,17.20
2019-05-21T13:14:02.471Z,17.30
2019-05-21T13:16:29.558Z,17.20
2019-05-21T13:18:56.486Z,17.30
2019-05-21T13:21:23.388Z,17.30
2019-05-21T13:23:50.199Z,17.20
2019-05-21T13:26:17.213Z,17.20
2019-05-21T13:28:44.253Z,17.20
2019-05-21T13:31:11.302Z,17.10
2019-05-21T13:33:38.116Z,17.00
2019-05-21T13:36:05.152Z,17.00
2019-05-21T13:38:32.213Z,17.10
2019-05-21T13:40:59.291Z,17.20
2019-05-21T13:43:26.442Z,17.30
2019-05-21T13:45:53.278Z,17.20
2019-05-21T13:48:20.170Z,17.20
2019-05-21T13:50:46.979Z,17.20
2019-05-21T13:53:13.954Z,17.20
2019-05-21T13:55:40.870Z,17.20
2019-05-21T13:58:07.803Z,17.10
2019-05-21T14:00:42.372Z,17.30
2019-05-21T14:03:09.275Z,17.40
2019-05-21T14:05:37.475Z,17.70
2019-05-21T14:08:04.414Z,17.90
2019-05-21T14:10:32.146Z,17.80
2019-05-21T14:12:59.062Z,17.80
2019-05-21T14:15:26.016Z,17.70
2019-05-21T14:17:53.019Z,18.00
2019-05-21T14:20:20.582Z,18.10
2019-05-21T14:22:47.438Z,18.10
2019-05-21T14:25:14.441Z,18.10
2019-05-21T14:27:44.737Z,18.20
2019-05-21T14:30:10.291Z,18.20
2019-05-21T14:32:37.235Z,18.30
2019-05-21T14:35:04.339Z,18.40
2019-05-21T14:37:31.145Z,18.60
2019-05-21T14:39:58.083Z,18.60
2019-05-21T14:42:25.137Z,18.80
2019-05-21T14:44:52.055Z,19.10
2019-05-21T14:47:18.866Z,19.00
2019-05-21T14:49:45.694Z,19.20
2019-05-21T14:52:12.485Z,19.10
2019-05-21T14:54:39.308Z,19.00
2019-05-21T14:57:11.286Z,19.00
2019-05-21T14:59:38.461Z,19.40
2019-05-21T15:02:05.366Z,19.20
2019-05-21T15:04:32.420Z,19.30
2019-05-21T15:06:59.528Z,19.20
2019-05-21T15:09:26.432Z,18.90
2019-05-21T15:11:53.467Z,18.60
2019-05-21T15:14:20.375Z,18.50
2019-05-21T15:16:47.495Z,18.40
2019-05-21T15:19:14.528Z,18.30
2019-05-21T15:21:46.386Z,18.10
2019-05-21T15:24:13.504Z,18.10
2019-05-21T15:26:40.767Z,18.00
2019-05-21T15:29:07.607Z,18.00
2019-05-21T15:31:34.502Z,17.90
2019-05-21T15:34:01.431Z,17.80
2019-05-21T15:36:28.380Z,17.80
2019-05-21T15:38:55.170Z,17.80
2019-05-21T15:41:22.083Z,17.80
2019-05-21T15:43:48.910Z,17.80
2019-05-21T15:46:15.833Z,17.70
2019-05-21T15:48:42.641Z,17.70
2019-05-21T15:51:09.791Z,17.80
2019-05-21T15:53:36.690Z,18.00
2019-05-21T15:56:03.718Z,18.00
2019-05-21T15:58:30.673Z,18.20
2019-05-21T16:00:57.479Z,18.30
2019-05-21T16:03:24.485Z,18.40
2019-05-21T16:05:51.430Z,18.40
2019-05-21T16:08:18.345Z,18.30
2019-05-21T16:10:45.147Z,18.20
2019-05-21T16:13:11.984Z,18.20
2019-05-21T16:15:38.966Z,18.10
2019-05-21T16:18:05.931Z,18.00
2019-05-21T16:20:32.942Z,18.10
2019-05-21T16:22:59.779Z,18.10
2019-05-21T16:25:26.689Z,18.10
2019-05-21T16:27:53.591Z,18.00
2019-05-21T16:30:20.590Z,17.80
2019-05-21T16:32:47.487Z,17.80
2019-05-21T16:35:14.934Z,17.90
2019-05-21T16:37:41.806Z,18.00
2019-05-21T16:40:10.721Z,17.90
2019-05-21T16:42:37.627Z,17.90
2019-05-21T16:45:04.894Z,17.90
2019-05-21T16:47:44.311Z,17.70
2019-05-21T16:50:00.586Z,17.60
2019-05-21T16:52:27.520Z,17.70
2019-05-21T16:54:54.415Z,17.70
2019-05-21T16:57:21.304Z,17.60
2019-05-21T16:59:48.260Z,17.60
2019-05-21T17:02:15.190Z,17.50
2019-05-21T17:04:42.094Z,17.50
2019-05-21T17:07:09.013Z,17.50
2019-05-21T17:09:35.879Z,17.30
2019-05-21T17:12:02.919Z,17.40
2019-05-21T17:14:29.832Z,17.50
2019-05-21T17:16:56.641Z,17.70
2019-05-21T17:19:23.555Z,17.70
2019-05-21T17:21:50.470Z,17.70
2019-05-21T17:24:17.271Z,17.50
2019-05-21T17:26:44.110Z,17.30
2019-05-21T17:29:11.035Z,17.10
2019-05-21T17:31:37.954Z,17.10
2019-05-21T17:34:04.967Z,17.00
2019-05-21T17:36:31.889Z,17.00
2019-05-21T17:38:58.962Z,17.00
2019-05-21T17:41:25.983Z,16.90
2019-05-21T17:43:52.902Z,16.90
2019-05-21T17:46:20.010Z,16.80
2019-05-21T17:48:46.965Z,16.80
2019-05-21T17:51:13.911Z,16.90
2019-05-21T17:53:40.871Z,16.80
2019-05-21T17:56:08.182Z,16.70
2019-05-21T17:58:35.106Z,16.70
2019-05-21T18:01:04.403Z,16.70
2019-05-21T18:03:31.736Z,16.70
2019-05-21T18:05:59.385Z,16.60
2019-05-21T18:08:26.396Z,16.50
2019-05-21T18:10:54.204Z,16.50
2019-05-21T18:13:22.172Z,16.50
2019-05-21T18:15:49.507Z,16.50
2019-05-21T18:18:17.258Z,16.50
2019-05-21T18:20:44.522Z,16.50
2019-05-21T18:23:11.342Z,16.50
2019-05-21T18:25:38.497Z,16.40
2019-05-21T18:28:06.059Z,16.30
2019-05-21T18:30:33.780Z,16.20
2019-05-21T18:33:01.101Z,16.20
2019-05-21T18:35:29.927Z,16.20
2019-05-21T18:37:57.130Z,16.10
2019-05-21T18:40:24.119Z,16.00
2019-05-21T18:42:51.214Z,15.90
2019-05-21T18:45:18.233Z,15.90
2019-05-21T18:47:45.352Z,15.80
2019-05-21T18:50:12.898Z,15.80
2019-05-21T18:52:39.797Z,15.70
2019-05-21T18:55:07.028Z,15.70
2019-05-21T18:57:34.038Z,15.70
2019-05-21T19:00:00.966Z,15.70
2019-05-21T19:02:27.893Z,15.70
2019-05-21T19:04:54.842Z,15.70
2019-05-21T19:07:21.951Z,15.60
2019-05-21T19:09:48.836Z,15.60
2019-05-21T19:12:15.990Z,15.50
2019-05-21T19:14:44.751Z,15.50
2019-05-21T19:17:12.092Z,15.60
2019-05-21T19:19:38.946Z,15.50
2019-05-21T19:22:06.069Z,15.50
2019-05-21T19:24:33.178Z,15.50
2019-05-21T19:27:00.154Z,15.50
2019-05-21T19:29:27.150Z,15.50
2019-05-21T19:31:54.165Z,15.50
2019-05-21T19:34:21.103Z,15.40
2019-05-21T19:36:48.118Z,15.40
2019-05-21T19:39:15.146Z,15.40
2019-05-21T19:41:42.149Z,15.40
2019-05-21T19:44:09.381Z,15.30
2019-05-21T19:46:36.178Z,15.30
2019-05-21T19:49:03.195Z,15.30
2019-05-21T19:51:30.240Z,15.30
2019-05-21T19:53:57.164Z,15.30
2019-05-21T19:56:24.109Z,15.20
2019-05-21T19:58:51.041Z,15.20
2019-05-21T20:01:18.147Z,15.20
2019-05-21T20:03:45.434Z,15.10
2019-05-21T20:06:14.975Z,15.10
2019-05-21T20:08:41.994Z,15.10
2019-05-21T20:11:09.059Z,15.10
2019-05-21T20:13:35.962Z,15.00
2019-05-21T20:16:04.862Z,15.00
2019-05-21T20:18:31.835Z,15.00
2019-05-21T20:21:00.006Z,14.90
2019-05-21T20:23:27.014Z,14.90
2019-05-21T20:25:56.722Z,14.90
2019-05-21T20:28:23.919Z,14.80
2019-05-21T20:30:51.120Z,14.80
2019-05-21T20:33:18.253Z,14.80
2019-05-21T20:35:46.781Z,14.80
2019-05-21T20:38:13.901Z,14.70
2019-05-21T20:40:41.472Z,14.70
2019-05-21T20:43:09.278Z,14.70
2019-05-21T20:45:39.190Z,14.60
2019-05-21T20:48:06.400Z,14.60
2019-05-21T20:50:33.853Z,14.60
2019-05-21T20:53:01.082Z,14.60
2019-05-21T20:55:30.233Z,14.60
2019-05-21T20:57:57.964Z,14.50
2019-05-21T21:00:29.467Z,14.50
2019-05-21T21:02:56.659Z,14.40
2019-05-21T21:05:23.790Z,14.40
2019-05-21T21:07:51.226Z,14.40
2019-05-21T21:10:18.346Z,14.40
2019-05-21T21:12:45.356Z,14.30
2019-05-21T21:15:13.276Z,14.30
2019-05-21T21:17:40.502Z,14.30
2019-05-21T21:20:08.122Z,14.30
2019-05-21T21:22:35.260Z,14.30
2019-05-21T21:25:02.874Z,14.30
2019-05-21T21:27:29.903Z,14.20
2019-05-21T21:29:56.822Z,14.10
2019-05-21T21:32:23.974Z,14.10
2019-05-21T21:34:50.830Z,14.00
2019-05-21T21:37:17.895Z,14.00
2019-05-21T21:39:44.813Z,14.00
2019-05-21T21:42:12.501Z,14.00
2019-05-21T21:44:39.638Z,13.80
2019-05-21T21:47:07.055Z,13.80
2019-05-21T21:49:34.586Z,13.80
2019-05-21T21:52:02.006Z,13.80
2019-05-21T21:54:29.606Z,13.70
2019-05-21T21:56:56.702Z,13.70
2019-05-21T21:59:23.735Z,13.70
2019-05-21T22:01:55.157Z,13.60
2019-05-21T22:04:27.422Z,13.60
2019-05-21T22:06:55.290Z,13.50
2019-05-21T22:09:26.079Z,13.40
2019-05-21T22:11:55.044Z,13.40
2019-05-21T22:14:22.143Z,13.40
2019-05-21T22:16:51.571Z,13.20
2019-05-21T22:19:18.864Z,13.20
2019-05-21T22:21:46.471Z,13.10
2019-05-21T22:24:13.619Z,13.10
2019-05-21T22:26:40.843Z,13.10
2019-05-21T22:29:07.639Z,13.20
2019-05-21T22:31:34.700Z,13.00
2019-05-21T22:34:01.776Z,12.90
2019-05-21T22:36:28.778Z,12.80
2019-05-21T22:38:55.755Z,12.80
2019-05-21T22:41:22.686Z,12.80
2019-05-21T22:43:49.686Z,12.80
2019-05-21T22:46:16.670Z,12.80
2019-05-21T22:48:43.790Z,12.80
2019-05-21T22:51:11.143Z,12.80
2019-05-21T22:53:38.184Z,12.80
2019-05-21T22:56:05.162Z,12.80
2019-05-21T22:58:32.195Z,12.60
2019-05-21T23:01:00.949Z,12.70
2019-05-21T23:03:28.142Z,12.70
2019-05-21T23:05:55.039Z,12.60
2019-05-21T23:08:22.190Z,12.60
2019-05-21T23:10:48.993Z,12.60
2019-05-21T23:13:15.896Z,12.50
2019-05-21T23:15:43.042Z,12.50
2019-05-21T23:18:10.877Z,12.50
2019-05-21T23:20:37.758Z,12.50
2019-05-21T23:23:05.467Z,12.40
2019-05-21T23:25:34.186Z,12.40
2019-05-21T23:28:21.058Z,12.40
2019-05-21T23:30:48.046Z,12.40
2019-05-21T23:33:15.163Z,12.50
2019-05-21T23:35:42.406Z,12.50
2019-05-21T23:38:09.904Z,12.40
2019-05-21T23:40:37.328Z,12.40
2019-05-21T23:43:05.366Z,12.40
2019-05-21T23:45:32.710Z,12.40
2019-05-21T23:47:59.850Z,12.40
2019-05-21T23:50:28.087Z,12.40
2019-05-21T23:52:55.843Z,12.40
2019-05-21T23:55:23.030Z,12.40
2019-05-21T23:57:50.174Z,12.30
